createdAt,value
2018-04-27T00:00:26.965Z,2.97
2018-04-27T00:02:54.431Z,3.00
2018-04-27T00:05:21.889Z,3.40
2018-04-27T00:07:49.487Z,3.35
2018-04-27T00:10:17.735Z,3.28
2018-04-27T00:12:45.191Z,3.58
2018-04-27T00:15:12.807Z,3.12
2018-04-27T00:17:40.259Z,3.45
2018-04-27T00:20:07.723Z,3.53
2018-04-27T00:22:35.182Z,4.22
2018-04-27T00:25:02.679Z,3.12
2018-04-27T00:27:30.235Z,3.65
2018-04-27T00:29:57.691Z,3.08
2018-04-27T00:32:25.252Z,3.45
2018-04-27T00:34:52.708Z,3.50
2018-04-27T00:37:20.258Z,3.58
2018-04-27T00:39:47.823Z,3.92
2018-04-27T00:42:15.386Z,3.45
2018-04-27T00:44:42.935Z,3.95
2018-04-27T00:47:10.391Z,4.60
2018-04-27T00:49:37.854Z,3.70
2018-04-27T00:52:05.312Z,5.20
2018-04-27T00:54:32.829Z,4.20
2018-04-27T00:57:00.291Z,4.60
2018-04-27T00:59:27.800Z,4.68
2018-04-27T01:01:55.263Z,4.47
2018-04-27T01:04:23.523Z,5.43
2018-04-27T01:06:51.012Z,5.60
2018-04-27T01:09:18.526Z,4.82
2018-04-27T01:11:45.985Z,4.53
2018-04-27T01:14:13.445Z,5.22
2018-04-27T01:16:40.904Z,4.78
2018-04-27T01:19:08.519Z,4.85
2018-04-27T01:21:36.023Z,4.70
2018-04-27T01:24:04.254Z,4.80
2018-04-27T01:26:31.707Z,5.15
2018-04-27T01:28:59.171Z,5.30
2018-04-27T01:31:26.723Z,6.05
2018-04-27T01:33:54.179Z,4.35
2018-04-27T01:36:21.631Z,3.90
2018-04-27T01:38:49.095Z,4.57
2018-04-27T01:41:16.602Z,4.62
2018-04-27T01:43:44.828Z,4.57
2018-04-27T01:46:12.389Z,4.75
2018-04-27T01:48:39.847Z,3.70
2018-04-27T01:51:07.312Z,4.90
2018-04-27T01:53:34.776Z,4.57
2018-04-27T01:56:02.240Z,5.15
2018-04-27T01:58:29.707Z,4.72
2018-04-27T02:00:57.923Z,4.25
2018-04-27T02:03:25.379Z,4.47
2018-04-27T02:05:52.836Z,4.60
2018-04-27T02:08:20.357Z,4.45
2018-04-27T02:10:47.823Z,5.32
2018-04-27T02:13:15.294Z,4.32
2018-04-27T02:15:43.508Z,4.95
2018-04-27T02:18:10.999Z,4.62
2018-04-27T02:20:38.446Z,4.90
2018-04-27T02:23:05.895Z,4.60
2018-04-27T02:25:33.379Z,4.30
2018-04-27T02:28:00.955Z,4.53
2018-04-27T02:30:29.187Z,4.45
2018-04-27T02:32:56.662Z,4.10
2018-04-27T02:35:24.228Z,5.30
2018-04-27T02:37:51.680Z,4.97
2018-04-27T02:40:19.256Z,5.45
2018-04-27T02:42:47.474Z,4.45
2018-04-27T02:45:14.963Z,5.03
2018-04-27T02:47:42.525Z,4.62
2018-04-27T02:50:10.006Z,5.37
2018-04-27T02:52:38.230Z,4.32
2018-04-27T02:55:05.773Z,4.28
2018-04-27T02:57:33.215Z,4.70
2018-04-27T03:00:00.669Z,4.82
2018-04-27T03:02:28.127Z,5.80
2018-04-27T03:04:55.589Z,4.37
2018-04-27T03:07:23.054Z,5.28
2018-04-27T03:09:50.537Z,5.90
2018-04-27T03:12:18.010Z,4.68
2018-04-27T03:14:45.579Z,5.22
2018-04-27T03:17:13.132Z,5.82
2018-04-27T03:19:40.597Z,5.72
2018-04-27T03:22:08.139Z,4.93
2018-04-27T03:24:35.712Z,5.80
2018-04-27T03:27:03.179Z,5.43
2018-04-27T03:29:30.639Z,4.95
2018-04-27T03:31:58.853Z,5.55
2018-04-27T03:34:26.395Z,5.03
2018-04-27T03:36:53.908Z,5.30
2018-04-27T03:39:21.469Z,5.35
2018-04-27T03:41:48.933Z,4.90
2018-04-27T03:44:16.475Z,5.20
2018-04-27T03:46:44.035Z,4.70
2018-04-27T03:49:11.601Z,4.68
2018-04-27T03:51:39.063Z,5.20
2018-04-27T03:54:06.519Z,5.95
2018-04-27T03:56:34.064Z,4.85
2018-04-27T03:59:01.587Z,6.10
2018-04-27T04:01:41.236Z,5.95
2018-04-27T04:04:20.612Z,5.57
2018-04-27T04:06:48.198Z,4.90
2018-04-27T04:09:16.500Z,4.95
2018-04-27T04:11:44.002Z,5.18
2018-04-27T04:14:11.455Z,5.05
2018-04-27T04:16:38.944Z,5.35
2018-04-27T04:19:07.159Z,5.37
2018-04-27T04:21:34.622Z,4.53
2018-04-27T04:24:02.104Z,5.32
2018-04-27T04:26:29.660Z,5.78
2018-04-27T04:28:57.124Z,4.87
2018-04-27T04:31:24.674Z,5.47
2018-04-27T04:33:52.135Z,5.35
2018-04-27T04:36:19.587Z,5.18
2018-04-27T04:38:47.142Z,5.25
2018-04-27T04:41:14.602Z,5.53
2018-04-27T04:43:42.059Z,4.93
2018-04-27T04:46:09.530Z,5.40
2018-04-27T04:48:37.761Z,5.40
2018-04-27T04:51:05.224Z,4.87
2018-04-27T04:53:32.683Z,5.05
2018-04-27T04:56:00.139Z,6.15
2018-04-27T04:58:27.603Z,5.45
2018-04-27T05:00:55.066Z,5.40
2018-04-27T05:03:22.525Z,7.15
2018-04-27T05:05:49.988Z,5.65
2018-04-27T05:08:17.616Z,6.40
2018-04-27T05:10:45.022Z,6.43
2018-04-27T05:13:12.487Z,7.20
2018-04-27T05:15:40.712Z,6.80
2018-04-27T05:18:28.938Z,7.43
2018-04-27T05:20:56.414Z,6.47
2018-04-27T05:23:23.898Z,6.78
2018-04-27T05:25:51.347Z,6.90
2018-04-27T05:28:18.823Z,7.25
2018-04-27T05:30:47.048Z,7.40
2018-04-27T05:33:14.540Z,7.57
2018-04-27T05:35:42.008Z,6.93
2018-04-27T05:38:09.463Z,6.45
2018-04-27T05:40:37.026Z,7.18
2018-04-27T05:43:05.253Z,6.95
2018-04-27T05:45:32.720Z,7.90
2018-04-27T05:48:00.170Z,7.65
2018-04-27T05:50:27.636Z,7.25
2018-04-27T05:52:55.094Z,7.18
2018-04-27T05:55:22.564Z,7.10
2018-04-27T05:57:50.028Z,7.90
2018-04-27T06:00:17.583Z,8.43
2018-04-27T06:02:45.234Z,7.90
2018-04-27T06:05:12.703Z,8.85
2018-04-27T06:07:40.261Z,7.62
2018-04-27T06:10:07.756Z,8.00
2018-04-27T06:12:35.188Z,8.75
2018-04-27T06:15:03.423Z,8.07
2018-04-27T06:17:30.878Z,8.52
2018-04-27T06:19:58.367Z,9.40
2018-04-27T06:22:25.818Z,7.95
2018-04-27T06:24:53.376Z,8.25
2018-04-27T06:27:20.834Z,8.52
2018-04-27T06:29:49.811Z,8.38
2018-04-27T06:32:17.283Z,8.55
2018-04-27T06:34:44.751Z,8.65
2018-04-27T06:37:12.988Z,8.13
2018-04-27T06:39:40.528Z,10.05
2018-04-27T06:42:08.046Z,9.85
2018-04-27T06:44:35.528Z,8.25
2018-04-27T06:47:03.053Z,8.60
2018-04-27T06:49:30.531Z,9.90
2018-04-27T06:51:58.762Z,9.07
2018-04-27T06:54:26.214Z,9.32
2018-04-27T06:56:53.803Z,9.50
2018-04-27T06:59:21.399Z,9.95
2018-04-27T07:01:49.643Z,10.05
2018-04-27T07:04:17.862Z,9.80
2018-04-27T07:06:45.342Z,11.02
2018-04-27T07:09:12.807Z,8.57
2018-04-27T07:11:40.316Z,8.98
2018-04-27T07:14:07.841Z,10.07
2018-04-27T07:16:35.343Z,9.65
2018-04-27T07:19:02.808Z,9.13
2018-04-27T07:21:30.296Z,10.00
2018-04-27T07:23:57.755Z,9.50
2018-04-27T07:26:25.246Z,9.40
2018-04-27T07:28:53.491Z,10.05
2018-04-27T07:31:21.004Z,9.73
2018-04-27T07:33:48.506Z,9.70
2018-04-27T07:36:15.991Z,10.05
2018-04-27T07:38:43.467Z,10.35
2018-04-27T07:41:10.959Z,9.90
2018-04-27T07:43:38.447Z,9.90
2018-04-27T07:46:06.692Z,9.82
2018-04-27T07:48:34.150Z,9.53
2018-04-27T07:51:01.686Z,9.93
2018-04-27T07:53:29.191Z,9.48
2018-04-27T07:55:57.414Z,8.00
2018-04-27T07:58:24.892Z,9.38
2018-04-27T08:00:52.380Z,9.15
2018-04-27T08:03:19.934Z,10.20
2018-04-27T08:05:47.498Z,9.20
2018-04-27T08:08:15.815Z,10.98
2018-04-27T08:10:43.247Z,9.07
2018-04-27T08:13:11.479Z,12.90
2018-04-27T08:15:38.962Z,11.80
2018-04-27T08:18:06.447Z,8.70
2018-04-27T08:20:33.930Z,8.20
2018-04-27T08:23:01.432Z,8.53
2018-04-27T08:25:30.793Z,7.47
2018-04-27T08:27:58.293Z,15.33
2018-04-27T08:30:25.767Z,6.57
2018-04-27T08:32:54.099Z,7.73
2018-04-27T08:35:21.662Z,8.07
2018-04-27T08:37:49.259Z,7.23
2018-04-27T08:40:17.597Z,9.10
2018-04-27T08:42:45.304Z,8.67
2018-04-27T08:45:13.630Z,9.10
2018-04-27T08:47:41.398Z,9.00
2018-04-27T08:50:09.160Z,8.07
2018-04-27T08:52:36.758Z,8.90
2018-04-27T08:55:05.015Z,8.30
2018-04-27T08:57:32.593Z,8.43
2018-04-27T09:00:00.862Z,9.90
2018-04-27T09:02:28.411Z,8.67
2018-04-27T09:04:55.891Z,8.60
2018-04-27T09:07:23.370Z,8.50
2018-04-27T09:09:50.876Z,9.60
2018-04-27T09:12:18.391Z,8.93
2018-04-27T09:14:45.889Z,8.90
2018-04-27T09:17:13.362Z,8.10
2018-04-27T09:19:40.838Z,7.23
2018-04-27T09:22:09.065Z,7.70
2018-04-27T09:24:36.545Z,7.70
2018-04-27T09:27:04.015Z,6.67
2018-04-27T09:29:31.482Z,7.77
2018-04-27T09:31:59.717Z,6.70
2018-04-27T09:34:27.294Z,7.40
2018-04-27T09:36:54.756Z,7.77
2018-04-27T09:39:22.239Z,5.83
2018-04-27T09:41:50.462Z,6.80
2018-04-27T09:44:17.941Z,6.13
2018-04-27T09:46:46.170Z,5.07
2018-04-27T09:49:13.634Z,5.80
2018-04-27T09:51:41.100Z,4.70
2018-04-27T09:54:08.565Z,4.83
2018-04-27T09:56:36.030Z,4.47
2018-04-27T09:59:03.506Z,4.00
2018-04-27T10:01:30.961Z,5.10
2018-04-27T10:03:58.513Z,5.47
2018-04-27T10:06:26.021Z,5.60
2018-04-27T10:08:53.528Z,6.23
2018-04-27T10:11:21.090Z,5.20
2018-04-27T10:13:48.630Z,5.43
2018-04-27T10:16:16.089Z,4.80
2018-04-27T10:18:43.610Z,5.13
2018-04-27T10:21:11.121Z,4.60
2018-04-27T10:23:38.580Z,5.97
2018-04-27T10:26:06.146Z,6.37
2018-04-27T10:28:34.371Z,5.40
2018-04-27T10:31:01.876Z,5.10
2018-04-27T10:33:29.315Z,5.10
2018-04-27T10:35:57.560Z,5.70
2018-04-27T10:38:25.039Z,5.13
2018-04-27T10:40:52.740Z,4.80
2018-04-27T10:43:20.955Z,6.40
2018-04-27T10:45:48.438Z,5.90
2018-04-27T10:48:16.017Z,5.20
2018-04-27T10:50:43.471Z,5.17
2018-04-27T10:53:11.007Z,4.50
2018-04-27T10:55:38.575Z,4.67
2018-04-27T10:58:06.043Z,3.57
2018-04-27T11:00:34.283Z,4.77
2018-04-27T11:03:01.768Z,4.67
2018-04-27T11:05:29.243Z,4.67
2018-04-27T11:07:57.499Z,4.20
2018-04-27T11:10:25.060Z,4.80
2018-04-27T11:12:53.332Z,4.53
2018-04-27T11:15:22.302Z,4.03
2018-04-27T11:17:49.760Z,4.30
2018-04-27T11:20:17.334Z,3.90
2018-04-27T11:22:45.515Z,4.57
2018-04-27T11:25:13.028Z,4.57
2018-04-27T11:27:40.504Z,5.63
2018-04-27T11:30:07.998Z,4.37
2018-04-27T11:32:36.231Z,5.47
2018-04-27T11:35:04.312Z,4.57
2018-04-27T11:37:32.075Z,4.87
2018-04-27T11:39:59.887Z,4.77
2018-04-27T11:42:28.226Z,4.80
2018-04-27T11:44:55.738Z,4.80
2018-04-27T11:47:23.252Z,4.07
2018-04-27T11:49:52.224Z,4.70
2018-04-27T11:52:19.704Z,4.63
2018-04-27T11:54:47.944Z,4.83
2018-04-27T11:57:15.450Z,4.23
2018-04-27T11:59:42.911Z,3.37
2018-04-27T12:02:11.858Z,3.57
2018-04-27T12:04:39.310Z,3.83
2018-04-27T12:07:06.856Z,3.67
2018-04-27T12:09:34.319Z,4.57
2018-04-27T12:12:01.813Z,4.57
2018-04-27T12:14:29.272Z,4.50
2018-04-27T12:16:56.744Z,4.53
2018-04-27T12:19:24.996Z,4.10
2018-04-27T12:21:52.560Z,4.40
2018-04-27T12:24:20.164Z,3.53
2018-04-27T12:26:48.370Z,3.93
2018-04-27T12:29:15.833Z,3.50
2018-04-27T12:31:43.381Z,3.43
2018-04-27T12:34:10.760Z,3.90
2018-04-27T12:36:39.756Z,4.40
2018-04-27T12:39:08.728Z,4.23
2018-04-27T12:41:36.340Z,4.20
2018-04-27T12:44:04.565Z,4.60
2018-04-27T12:46:32.134Z,4.07
2018-04-27T12:48:59.596Z,3.57
2018-04-27T12:51:27.066Z,4.10
2018-04-27T12:53:55.306Z,4.37
2018-04-27T12:56:22.767Z,4.33
2018-04-27T12:58:50.248Z,4.10
2018-04-27T13:01:17.720Z,4.40
2018-04-27T13:03:45.959Z,4.97
2018-04-27T13:06:13.414Z,4.50
2018-04-27T13:08:40.878Z,3.70
2018-04-27T13:11:08.447Z,4.00
2018-04-27T13:13:37.417Z,3.57
2018-04-27T13:16:04.921Z,4.20
2018-04-27T13:18:33.152Z,5.23
2018-04-27T13:21:00.617Z,3.87
2018-04-27T13:23:28.140Z,3.03
2018-04-27T13:25:55.616Z,4.10
2018-04-27T13:28:23.095Z,3.83
2018-04-27T13:30:50.607Z,4.27
2018-04-27T13:33:18.152Z,3.53
2018-04-27T13:35:45.636Z,3.50
2018-04-27T13:38:13.098Z,2.80
2018-04-27T13:40:40.572Z,3.17
2018-04-27T13:43:08.165Z,4.80
2018-04-27T13:45:36.490Z,4.03
2018-04-27T13:48:04.081Z,5.87
2018-04-27T13:50:31.707Z,3.73
2018-04-27T13:52:59.257Z,5.17
2018-04-27T13:55:27.512Z,4.00
2018-04-27T13:57:55.803Z,3.03
2018-04-27T14:00:23.423Z,3.17
2018-04-27T14:02:51.088Z,3.10
2018-04-27T14:05:18.560Z,3.40
2018-04-27T14:07:46.898Z,3.43
2018-04-27T14:10:14.488Z,2.90
2018-04-27T14:12:42.839Z,2.87
2018-04-27T14:15:10.404Z,2.20
2018-04-27T14:17:37.959Z,2.70
2018-04-27T14:20:05.483Z,3.70
2018-04-27T14:22:33.695Z,2.30
2018-04-27T14:25:01.150Z,2.23
2018-04-27T14:27:29.424Z,2.40
2018-04-27T14:29:56.878Z,2.87
2018-04-27T14:32:24.370Z,2.37
2018-04-27T14:34:52.887Z,3.00
2018-04-27T14:37:20.335Z,3.00
2018-04-27T14:39:47.799Z,2.90
2018-04-27T14:42:15.266Z,3.00
2018-04-27T14:44:42.739Z,3.40
2018-04-27T14:47:10.194Z,2.97
2018-04-27T14:49:37.768Z,3.03
2018-04-27T14:52:05.315Z,3.43
2018-04-27T14:54:32.786Z,3.70
2018-04-27T14:57:00.291Z,3.43
2018-04-27T14:59:27.750Z,2.60
2018-04-27T15:01:55.221Z,2.40
2018-04-27T15:04:22.764Z,2.97
2018-04-27T15:06:50.231Z,2.93
2018-04-27T15:09:17.691Z,2.87
2018-04-27T15:11:45.191Z,3.37
2018-04-27T15:14:12.647Z,3.87
2018-04-27T15:16:40.287Z,2.80
2018-04-27T15:19:07.772Z,3.37
2018-04-27T15:21:36.086Z,3.10
2018-04-27T15:24:03.557Z,3.60
2018-04-27T15:26:31.027Z,3.03
2018-04-27T15:28:58.482Z,2.57
2018-04-27T15:31:25.935Z,2.70
2018-04-27T15:33:53.412Z,2.33
2018-04-27T15:36:20.971Z,2.57
2018-04-27T15:38:49.203Z,2.47
2018-04-27T15:41:16.671Z,2.73
2018-04-27T15:43:44.142Z,2.40
2018-04-27T15:46:11.600Z,2.77
2018-04-27T15:48:39.184Z,2.60
2018-04-27T15:51:06.638Z,2.93
2018-04-27T15:53:34.143Z,2.23
2018-04-27T15:56:01.608Z,2.50
2018-04-27T15:58:29.100Z,2.27
2018-04-27T16:00:57.743Z,3.00
2018-04-27T16:03:25.206Z,2.47
2018-04-27T16:05:52.694Z,2.00
2018-04-27T16:08:20.155Z,2.00
2018-04-27T16:10:48.388Z,2.63
2018-04-27T16:13:21.728Z,2.60
2018-04-27T16:15:49.180Z,2.00
2018-04-27T16:18:16.748Z,2.07
2018-04-27T16:20:44.255Z,2.10
2018-04-27T16:23:11.761Z,2.50
2018-04-27T16:25:40.090Z,1.80
2018-04-27T16:28:07.566Z,1.97
2018-04-27T16:30:35.060Z,2.57
2018-04-27T16:33:02.611Z,1.97
2018-04-27T16:35:30.070Z,2.33
2018-04-27T16:37:57.531Z,2.47
2018-04-27T16:40:25.085Z,1.90
2018-04-27T16:42:52.638Z,2.93
2018-04-27T16:45:20.095Z,2.03
2018-04-27T16:47:48.319Z,1.90
2018-04-27T16:50:15.887Z,2.33
2018-04-27T16:52:43.350Z,1.60
2018-04-27T16:55:10.821Z,1.80
2018-04-27T16:57:38.286Z,1.90
2018-04-27T17:00:05.758Z,2.03
2018-04-27T17:02:33.216Z,2.00
2018-04-27T17:05:00.764Z,2.30
2018-04-27T17:07:28.308Z,1.50
2018-04-27T17:09:55.788Z,2.23
2018-04-27T17:12:23.351Z,2.00
2018-04-27T17:14:50.810Z,1.40
2018-04-27T17:17:18.269Z,1.57
2018-04-27T17:19:45.733Z,1.57
2018-04-27T17:22:13.962Z,2.30
2018-04-27T17:24:41.418Z,2.20
2018-04-27T17:27:08.907Z,1.43
2018-04-27T17:29:36.359Z,1.70
2018-04-27T17:32:04.745Z,1.90
2018-04-27T17:34:32.309Z,1.50
2018-04-27T17:37:00.024Z,2.00
2018-04-27T17:39:27.321Z,2.30
2018-04-27T17:41:54.876Z,2.37
2018-04-27T17:44:23.202Z,1.50
2018-04-27T17:46:50.611Z,1.30
2018-04-27T17:49:18.168Z,1.73
2018-04-27T17:51:46.405Z,1.90
2018-04-27T17:54:13.869Z,1.30
2018-04-27T17:56:41.371Z,1.60
2018-04-27T17:59:09.624Z,2.20
2018-04-27T18:01:37.191Z,1.60
2018-04-27T18:04:05.454Z,1.87
2018-04-27T18:06:32.913Z,1.97
2018-04-27T18:09:00.387Z,2.23
2018-04-27T18:11:29.361Z,2.10
2018-04-27T18:13:56.954Z,1.70
2018-04-27T18:16:25.186Z,1.90
2018-04-27T18:18:52.650Z,2.20
2018-04-27T18:21:20.123Z,1.80
2018-04-27T18:23:48.380Z,2.13
2018-04-27T18:26:15.962Z,1.73
2018-04-27T18:28:44.951Z,1.87
2018-04-27T18:31:13.174Z,2.10
2018-04-27T18:33:40.671Z,1.87
2018-04-27T18:36:08.350Z,2.07
2018-04-27T18:38:36.740Z,2.07
2018-04-27T18:41:05.099Z,2.00
2018-04-27T18:43:32.660Z,2.27
2018-04-27T18:46:01.157Z,1.90
2018-04-27T18:48:29.520Z,2.20
2018-04-27T18:50:57.782Z,2.80
2018-04-27T18:53:25.242Z,2.13
2018-04-27T18:55:52.732Z,2.53
2018-04-27T18:58:20.270Z,2.60
2018-04-27T19:00:47.837Z,2.93
2018-04-27T19:03:18.810Z,3.07
2018-04-27T19:05:47.044Z,2.93
2018-04-27T19:08:15.315Z,3.17
2018-04-27T19:10:45.476Z,2.90
2018-04-27T19:13:13.581Z,2.30
2018-04-27T19:15:41.064Z,2.57
2018-04-27T19:18:08.515Z,3.17
2018-04-27T19:20:36.999Z,3.30
2018-04-27T19:23:09.167Z,4.27
2018-04-27T19:25:44.204Z,3.60
2018-04-27T19:28:11.664Z,3.30
2018-04-27T19:30:39.923Z,3.60
2018-04-27T19:33:07.391Z,3.23
2018-04-27T19:35:34.857Z,2.80
2018-04-27T19:38:03.112Z,3.37
2018-04-27T19:40:30.714Z,3.50
2018-04-27T19:42:58.361Z,3.77
2018-04-27T19:45:25.792Z,4.10
2018-04-27T19:47:53.260Z,3.17
2018-04-27T19:50:21.523Z,3.30
2018-04-27T19:52:49.136Z,3.30
2018-04-27T19:55:16.595Z,3.47
2018-04-27T19:57:44.061Z,3.03
2018-04-27T20:00:11.553Z,3.47
2018-04-27T20:02:39.132Z,3.83
2018-04-27T20:05:09.015Z,3.90
2018-04-27T20:07:36.582Z,4.40
2018-04-27T20:10:06.331Z,3.33
2018-04-27T20:12:33.807Z,3.40
2018-04-27T20:15:01.276Z,3.40
2018-04-27T20:17:37.406Z,4.00
2018-04-27T20:20:15.187Z,3.50
2018-04-27T20:22:44.059Z,4.10
2018-04-27T20:25:12.228Z,3.80
2018-04-27T20:27:43.508Z,3.47
2018-04-27T20:30:12.365Z,4.33
2018-04-27T20:32:43.227Z,3.60
2018-04-27T20:35:15.094Z,3.97
2018-04-27T20:37:42.576Z,4.00
2018-04-27T20:40:14.751Z,3.80
2018-04-27T20:42:42.242Z,4.00
2018-04-27T20:45:10.498Z,4.37
2018-04-27T20:47:38.957Z,3.97
2018-04-27T20:50:06.558Z,5.03
2018-04-27T20:52:37.256Z,4.20
2018-04-27T20:55:08.304Z,4.63
2018-04-27T20:57:35.791Z,4.33
2018-04-27T21:00:03.273Z,5.17
2018-04-27T21:02:31.504Z,5.43
2018-04-27T21:04:58.973Z,4.70
2018-04-27T21:07:26.541Z,4.60
2018-04-27T21:09:54.005Z,5.20
2018-04-27T21:12:26.655Z,4.73
2018-04-27T21:14:54.115Z,4.80
2018-04-27T21:17:21.596Z,4.97
2018-04-27T21:19:49.828Z,4.63
2018-04-27T21:22:17.300Z,3.97
2018-04-27T21:24:44.820Z,4.57
2018-04-27T21:27:12.326Z,5.63
2018-04-27T21:29:39.902Z,4.53
2018-04-27T21:32:08.160Z,4.90
2018-04-27T21:34:35.619Z,4.90
2018-04-27T21:37:03.092Z,5.17
2018-04-27T21:39:31.332Z,4.60
2018-04-27T21:42:02.395Z,4.93
2018-04-27T21:44:35.487Z,4.63
2018-04-27T21:47:23.471Z,5.30
2018-04-27T21:49:51.078Z,4.57
2018-04-27T21:52:20.230Z,5.57
2018-04-27T21:54:48.631Z,5.30
2018-04-27T21:57:25.730Z,5.00
2018-04-27T21:59:54.930Z,4.63
2018-04-27T22:05:31.211Z,5.27
2018-04-27T22:07:58.666Z,4.73
2018-04-27T22:10:26.135Z,4.53
2018-04-27T22:12:54.407Z,5.03
2018-04-27T22:15:21.873Z,4.27
2018-04-27T22:17:49.420Z,4.23
2018-04-27T22:20:21.588Z,5.73
2018-04-27T22:22:49.148Z,5.20
2018-04-27T22:25:22.356Z,5.50
2018-04-27T22:27:51.327Z,5.03
2018-04-27T22:33:22.280Z,5.63
2018-04-27T22:35:52.204Z,5.10
2018-04-27T22:41:17.014Z,5.10
2018-04-27T22:43:47.228Z,5.10
2018-04-27T22:46:14.699Z,5.40
2018-04-27T22:48:45.678Z,5.80
2018-04-27T22:51:15.647Z,5.70
2018-04-27T22:53:49.758Z,5.10
2018-04-27T22:56:23.782Z,5.80
2018-04-27T22:58:51.351Z,5.07
2018-04-27T23:01:19.603Z,4.70
2018-04-27T23:03:47.064Z,4.77
2018-04-27T23:06:14.610Z,5.90
2018-04-27T23:08:43.011Z,5.10
2018-04-27T23:11:28.175Z,5.50
2018-04-27T23:16:52.700Z,5.47
2018-04-27T23:19:21.670Z,7.00
2018-04-27T23:21:56.823Z,5.80
2018-04-27T23:24:25.065Z,5.10
2018-04-27T23:26:53.190Z,4.50
2018-04-27T23:29:20.661Z,5.77
2018-04-27T23:31:49.741Z,5.17
2018-04-27T23:34:22.683Z,5.87
2018-04-27T23:36:50.154Z,5.17
2018-04-27T23:39:18.429Z,4.67
2018-04-27T23:41:46.708Z,5.40
2018-04-27T23:44:14.346Z,6.00
2018-04-27T23:46:41.823Z,5.57
2018-04-27T23:49:09.289Z,5.20
2018-04-27T23:51:37.570Z,5.40
2018-04-27T23:54:07.674Z,5.60
2018-04-27T23:56:51.547Z,4.97
2018-04-27T23:59:31.582Z,5.60
